Time;durP1;ratioP1;P1;durP2;ratioP2;P2;SDS_P1;SDS_P2;PMS_P1;PMS_P2;Temp;Humidity;BMP_temperature;BMP_pressure;BME280_temperature;BME280_humidity;BME280_pressure;Samples;Min_cycle;Max_cycle;Signal;HPM_P1;HPM_P2
2023/01/03 00:01:54;;;;;;;0.10;0.10;;;9.00;99.90;;;;;;7378021;19;20672;-70
2023/01/03 00:04:26;;;;;;;0.10;0.10;;;8.80;99.90;;;;;;7379441;19;20653;-71
2023/01/03 00:06:56;;;;;;;0.10;0.10;;;8.70;99.90;;;;;;7378094;19;20630;-70
2023/01/03 00:09:29;;;;;;;0.03;0.03;;;8.80;99.90;;;;;;7377620;19;20634;-71
2023/01/03 00:14:41;;;;;;;0.00;0.00;;;8.80;99.90;;;;;;7377609;19;20615;-70
2023/01/03 00:17:11;;;;;;;0.00;0.00;;;8.80;99.90;;;;;;7377154;19;21017;-70
2023/01/03 00:19:44;;;;;;;0.00;0.00;;;8.70;99.90;;;;;;7377038;19;20665;-68
2023/01/03 00:22:16;;;;;;;0.10;0.10;;;8.80;99.90;;;;;;7375441;19;20664;-70
2023/01/03 00:24:49;;;;;;;0.10;0.10;;;8.80;99.90;;;;;;7377169;19;20611;-69
2023/01/03 00:27:18;;;;;;;0.10;0.10;;;8.80;99.90;;;;;;7373664;19;20735;-70
2023/01/03 00:29:48;;;;;;;0.10;0.10;;;;;;;;;;7375614;19;20666;-68
2023/01/03 00:32:17;;;;;;;0.00;0.00;;;;;;;;;;7377219;19;20619;-70
2023/01/03 00:34:49;;;;;;;0.10;0.10;;;10.60;99.90;;;;;;7375030;19;20757;-69
2023/01/03 00:37:18;;;;;;;0.10;0.10;;;8.90;99.90;;;;;;7376225;19;20673;-69
2023/01/03 00:39:50;;;;;;;0.03;0.03;;;8.90;99.90;;;;;;7376566;19;20741;-69
2023/01/03 00:42:19;;;;;;;0.00;0.00;;;;;;;;;;7375262;19;20687;-70
2023/01/03 00:44:48;;;;;;;0.10;0.10;;;8.90;99.90;;;;;;7375755;19;20615;-71
2023/01/03 00:47:21;;;;;;;0.10;0.10;;;;;;;;;;7375216;19;21356;-70
2023/01/03 00:49:50;;;;;;;0.00;0.00;;;9.50;99.90;;;;;;7376984;19;20670;-70
2023/01/03 00:52:19;;;;;;;0.10;0.10;;;;;;;;;;7376784;19;20635;-71
2023/01/03 00:54:52;;;;;;;0.00;0.00;;;8.90;99.90;;;;;;7375146;19;20751;-70
2023/01/03 00:57:21;;;;;;;0.00;0.00;;;;;;;;;;7376046;19;20709;-69
2023/01/03 00:59:50;;;;;;;0.10;0.10;;;;;;;;;;7376209;19;20680;-69
2023/01/03 01:02:20;;;;;;;0.07;0.07;;;;;;;;;;7375271;19;20652;-70
2023/01/03 01:04:51;;;;;;;0.10;0.10;;;;;;;;;;7376322;19;20599;-70
2023/01/03 01:07:19;;;;;;;0.10;0.10;;;9.10;99.90;;;;;;7375756;19;20657;-69
2023/01/03 01:09:51;;;;;;;0.00;0.00;;;9.10;99.90;;;;;;7376813;19;20725;-70
2023/01/03 01:12:20;;;;;;;0.07;0.07;;;;;;;;;;7376442;19;20607;-69
2023/01/03 01:14:48;;;;;;;0.00;0.00;;;8.90;99.90;;;;;;7373448;19;20753;-70
2023/01/03 01:17:18;;;;;;;0.10;0.10;;;;;;;;;;7374614;19;20686;-70
2023/01/03 01:19:47;;;;;;;0.00;0.00;;;8.90;99.90;;;;;;7373341;19;20630;-69
2023/01/03 01:22:15;;;;;;;0.00;0.00;;;8.90;99.90;;;;;;7369303;19;20603;-70
2023/01/03 01:24:44;;;;;;;0.00;0.00;;;;;;;;;;7374590;19;20988;-70
2023/01/03 01:27:15;;;;;;;0.00;0.00;;;8.80;99.90;;;;;;7371568;19;20675;-69
2023/01/03 01:29:44;;;;;;;0.00;0.00;;;8.90;99.90;;;;;;7376102;19;20711;-70
2023/01/03 01:32:13;;;;;;;0.07;0.07;;;;;;;;;;7374063;19;20712;-70
2023/01/03 01:34:42;;;;;;;0.10;0.10;;;;;;;;;;7375126;19;20686;-69
2023/01/03 01:37:11;;;;;;;0.00;0.00;;;;;;;;;;7371910;19;20607;-70
2023/01/03 01:39:39;;;;;;;0.03;0.03;;;;;;;;;;7375441;19;20619;-70
2023/01/03 01:44:58;;;;;;;0.10;0.10;;;8.90;99.90;;;;;;7373017;19;20595;-70
2023/01/03 01:47:35;;;;;;;0.10;0.10;;;9.00;99.90;;;;;;7369661;19;20701;-70
2023/01/03 01:50:16;;;;;;;0.10;0.10;;;8.90;99.90;;;;;;7374606;19;20967;-69
2023/01/03 01:52:49;;;;;;;0.10;0.10;;;8.80;99.90;;;;;;7373168;19;20745;-69
2023/01/03 01:55:22;;;;;;;0.00;0.00;;;8.90;99.90;;;;;;7375790;19;20618;-69
2023/01/03 01:57:53;;;;;;;0.10;0.10;;;8.90;99.90;;;;;;7371696;19;20729;-70
2023/01/03 02:00:23;;;;;;;0.00;0.00;;;8.90;99.90;;;;;;7376609;19;20611;-71
2023/01/03 02:02:54;;;;;;;0.10;0.10;;;8.90;99.90;;;;;;7371854;19;20725;-70
2023/01/03 02:05:24;;;;;;;0.00;0.00;;;8.90;99.90;;;;;;7374036;19;20663;-70
2023/01/03 02:07:54;;;;;;;0.00;0.00;;;8.60;99.90;;;;;;7371865;19;20698;-70
2023/01/03 02:10:32;;;;;;;0.00;0.00;;;8.90;99.90;;;;;;7371450;19;20737;-69
2023/01/03 02:13:10;;;;;;;0.00;0.00;;;9.00;99.90;;;;;;7375477;19;20607;-70
2023/01/03 02:16:02;;;;;;;0.00;0.00;;;8.90;99.90;;;;;;7371701;19;20744;-69
2023/01/03 02:18:41;;;;;;;0.10;0.10;;;8.90;99.90;;;;;;7374688;19;20659;-69
2023/01/03 02:21:47;;;;;;;0.00;0.00;;;8.80;99.90;;;;;;7373299;19;21177;-69
2023/01/03 02:24:42;;;;;;;0.10;0.10;;;8.90;99.90;;;;;;7374098;19;20610;-70
2023/01/03 02:27:35;;;;;;;0.00;0.00;;;8.90;99.90;;;;;;7370143;19;20642;-70
2023/01/03 02:30:32;;;;;;;0.00;0.00;;;8.90;99.90;;;;;;7373564;19;20587;-70
2023/01/03 02:33:14;;;;;;;0.00;0.00;;;8.90;99.90;;;;;;7372929;19;20660;-70
2023/01/03 02:35:50;;;;;;;0.00;0.00;;;8.90;99.90;;;;;;7371455;19;20634;-70
2023/01/03 02:38:25;;;;;;;0.10;0.10;;;8.70;99.90;;;;;;7373644;19;20603;-70
2023/01/03 02:41:00;;;;;;;0.00;0.00;;;8.80;99.90;;;;;;7374481;19;20722;-69
2023/01/03 02:43:34;;;;;;;0.10;0.10;;;8.80;99.90;;;;;;7372736;19;20717;-70
2023/01/03 02:46:11;;;;;;;0.00;0.00;;;8.70;99.90;;;;;;7372329;19;20791;-69
2023/01/03 02:48:49;;;;;;;0.10;0.10;;;8.70;99.90;;;;;;7374158;19;20636;-70
2023/01/03 02:51:23;;;;;;;0.00;0.00;;;8.70;99.90;;;;;;7373196;19;20595;-69
2023/01/03 02:53:53;;;;;;;0.10;0.10;;;8.70;99.90;;;;;;7378924;19;20586;-70
2023/01/03 02:56:26;;;;;;;0.10;0.10;;;8.70;99.90;;;;;;7378743;19;20670;-69
2023/01/03 02:58:59;;;;;;;0.07;0.07;;;8.70;99.90;;;;;;7379216;19;20682;-70
2023/01/03 03:01:32;;;;;;;0.10;0.10;;;8.70;99.90;;;;;;7381098;19;20643;-70
2023/01/03 03:04:05;;;;;;;0.10;0.10;;;8.60;99.90;;;;;;7379714;19;20607;-69
2023/01/03 03:06:40;;;;;;;0.00;0.00;;;8.60;99.90;;;;;;7377812;19;20667;-70
2023/01/03 03:09:09;;;;;;;0.10;0.10;;;8.60;99.90;;;;;;7381230;19;20659;-69
2023/01/03 03:14:25;;;;;;;0.10;0.10;;;8.60;99.90;;;;;;7379795;19;20571;-69
2023/01/03 03:16:59;;;;;;;0.10;0.10;;;8.60;99.90;;;;;;7378911;19;20753;-69
2023/01/03 03:25:06;;;;;;;0.10;0.10;;;8.60;99.90;;;;;;7377781;19;20732;-69
2023/01/03 03:30:20;;;;;;;0.10;0.10;;;8.50;99.90;;;;;;7377762;19;20615;-70
2023/01/03 03:32:56;;;;;;;0.00;0.00;;;8.90;99.90;;;;;;7378853;19;20761;-69
2023/01/03 03:35:27;;;;;;;0.00;0.00;;;8.50;99.90;;;;;;7379913;19;20171;-69
2023/01/03 03:37:58;;;;;;;0.10;0.10;;;8.50;99.90;;;;;;7374654;19;20777;-69
2023/01/03 03:46:15;;;;;;;0.00;0.00;;;8.40;99.90;;;;;;7379703;19;20606;-70
2023/01/03 03:51:36;;;;;;;0.10;0.10;;;8.40;99.90;;;;;;7378901;19;20657;-69
2023/01/03 03:54:13;;;;;;;0.10;0.10;;;8.40;99.90;;;;;;7378796;19;20710;-70
2023/01/03 03:56:44;;;;;;;0.10;0.10;;;8.40;99.90;;;;;;7379068;19;20725;-70
2023/01/03 03:59:13;;;;;;;0.10;0.10;;;;;;;;;;7378642;19;20611;-69
2023/01/03 04:01:43;;;;;;;0.10;0.10;;;8.30;99.90;;;;;;7379332;19;20753;-70
2023/01/03 04:04:20;;;;;;;0.10;0.10;;;8.30;99.90;;;;;;7376474;19;20618;-70
2023/01/03 04:06:51;;;;;;;0.10;0.10;;;8.30;99.90;;;;;;7376690;19;20658;-69
2023/01/03 04:09:20;;;;;;;0.00;0.00;;;;;;;;;;7376163;19;20648;-70
2023/01/03 04:11:49;;;;;;;0.10;0.10;;;8.10;99.90;;;;;;7378538;19;21375;-69
2023/01/03 04:14:17;;;;;;;0.00;0.00;;;8.00;99.90;;;;;;7376831;19;20942;-70
2023/01/03 04:16:46;;;;;;;0.10;0.10;;;8.10;99.90;;;;;;7377843;19;20733;-69
2023/01/03 04:19:17;;;;;;;0.10;0.10;;;8.00;99.90;;;;;;7375769;19;20665;-69
2023/01/03 04:21:46;;;;;;;0.10;0.10;;;8.00;99.90;;;;;;7376217;19;20733;-69
2023/01/03 04:24:14;;;;;;;0.00;0.00;;;7.90;99.90;;;;;;7377094;19;20599;-69
2023/01/03 04:26:43;;;;;;;0.00;0.00;;;7.80;99.90;;;;;;7373732;19;20658;-69
2023/01/03 04:29:11;;;;;;;0.10;0.10;;;7.80;99.90;;;;;;7378395;19;20746;-70
2023/01/03 04:31:40;;;;;;;0.10;0.10;;;7.80;99.90;;;;;;7374781;19;20780;-70
2023/01/03 04:34:09;;;;;;;0.00;0.00;;;7.60;99.90;;;;;;7375865;19;20639;-69
2023/01/03 04:36:41;;;;;;;0.10;0.10;;;7.80;99.90;;;;;;7377257;19;20658;-69
2023/01/03 04:39:10;;;;;;;0.10;0.10;;;;;;;;;;7376517;19;20678;-69
2023/01/03 04:41:39;;;;;;;0.10;0.10;;;7.80;99.90;;;;;;7373543;19;20661;-70
2023/01/03 04:44:05;;;;;;;0.10;0.10;;;7.80;99.90;;;;;;7375225;19;20741;-70
2023/01/03 04:46:38;;;;;;;0.10;0.10;;;7.80;99.90;;;;;;7375565;19;20627;-69
2023/01/03 04:49:08;;;;;;;0.10;0.10;;;7.80;99.90;;;;;;7377926;19;20575;-70
2023/01/03 04:51:37;;;;;;;0.10;0.10;;;7.80;99.90;;;;;;7374970;19;21369;-69
2023/01/03 04:54:09;;;;;;;0.10;0.10;;;7.80;99.90;;;;;;7376455;19;20680;-69
2023/01/03 04:56:39;;;;;;;0.07;0.07;;;7.80;99.90;;;;;;7375590;19;20671;-69
2023/01/03 04:59:08;;;;;;;0.00;0.00;;;7.70;99.90;;;;;;7377123;19;20599;-69
2023/01/03 05:01:36;;;;;;;0.00;0.00;;;7.70;99.90;;;;;;7376018;19;20615;-70
2023/01/03 05:04:05;;;;;;;0.10;0.10;;;7.70;99.90;;;;;;7374728;19;20683;-69
2023/01/03 05:06:33;;;;;;;0.10;0.10;;;7.30;99.90;;;;;;7374901;19;21006;-69
2023/01/03 05:09:02;;;;;;;0.13;0.13;;;;;;;;;;7373231;19;20754;-70
2023/01/03 05:11:33;;;;;;;0.10;0.10;;;7.50;99.90;;;;;;7375495;19;20745;-69
2023/01/03 05:14:02;;;;;;;0.10;0.10;;;7.60;99.90;;;;;;7376275;19;20619;-69
2023/01/03 05:16:30;;;;;;;0.10;0.10;;;7.50;99.90;;;;;;7375459;19;20625;-69
2023/01/03 05:18:59;;;;;;;0.10;0.10;;;7.50;99.90;;;;;;7376346;19;20599;-69
2023/01/03 05:26:55;;;;;;;0.10;0.10;;;7.30;99.90;;;;;;7376359;19;20623;-69
2023/01/03 05:29:26;;;;;;;0.00;0.00;;;7.30;99.90;;;;;;7375106;19;20615;-70
2023/01/03 05:31:55;;;;;;;0.10;0.10;;;7.30;99.90;;;;;;7376680;19;20606;-70
2023/01/03 05:34:23;;;;;;;0.10;0.10;;;7.30;99.90;;;;;;7374318;19;20618;-69
2023/01/03 05:36:52;;;;;;;0.10;0.10;;;7.20;99.90;;;;;;7373298;19;20773;-69
2023/01/03 05:39:21;;;;;;;0.10;0.10;;;7.20;99.90;;;;;;7377036;19;21357;-70
2023/01/03 05:42:01;;;;;;;0.10;0.10;;;7.20;99.90;;;;;;7375782;19;20710;-68
2023/01/03 05:44:34;;;;;;;0.00;0.00;;;7.20;99.90;;;;;;7372843;19;20627;-68
2023/01/03 05:47:04;;;;;;;0.10;0.10;;;7.20;99.90;;;;;;7372631;19;20715;-68
2023/01/03 05:49:34;;;;;;;0.00;0.00;;;7.10;99.90;;;;;;7374351;19;20611;-68
2023/01/03 05:52:02;;;;;;;0.10;0.10;;;7.20;99.90;;;;;;7373738;19;20611;-68
2023/01/03 05:54:31;;;;;;;0.00;0.00;;;7.20;99.90;;;;;;7375624;19;20611;-68
2023/01/03 05:57:00;;;;;;;0.10;0.10;;;7.20;99.90;;;;;;7374368;19;20726;-68
2023/01/03 05:59:28;;;;;;;0.10;0.10;;;7.20;99.90;;;;;;7375464;19;20611;-68
2023/01/03 06:01:59;;;;;;;0.00;0.00;;;7.20;99.90;;;;;;7373533;19;21257;-68
2023/01/03 06:04:28;;;;;;;0.00;0.00;;;7.20;99.90;;;;;;7374346;19;20709;-67
2023/01/03 06:06:56;;;;;;;0.10;0.10;;;7.30;99.90;;;;;;7370755;19;20663;-68
2023/01/03 06:09:25;;;;;;;0.10;0.10;;;7.20;99.90;;;;;;7374051;19;20661;-67
2023/01/03 06:11:54;;;;;;;0.10;0.10;;;7.20;99.90;;;;;;7374962;19;20599;-68
2023/01/03 06:14:22;;;;;;;0.10;0.10;;;6.20;99.90;;;;;;7374423;19;20604;-68
2023/01/03 06:19:36;;;;;;;0.10;0.10;;;7.10;99.90;;;;;;7375503;19;20587;-68
2023/01/03 06:22:14;;;;;;;0.10;0.10;;;;;;;;;;7376236;19;20615;-67
2023/01/03 06:24:43;;;;;;;0.10;0.10;;;7.20;99.90;;;;;;7373236;19;20626;-68
2023/01/03 06:27:12;;;;;;;0.00;0.00;;;;;;;;;;7374491;19;20626;-67
2023/01/03 06:29:41;;;;;;;0.10;0.10;;;;;;;;;;7382326;19;20659;-67
2023/01/03 06:32:09;;;;;;;0.10;0.10;;;;;;;;;;7381667;19;20595;-68
2023/01/03 06:34:41;;;;;;;0.10;0.10;;;6.90;99.90;;;;;;7378613;19;20733;-67
2023/01/03 06:37:10;;;;;;;0.10;0.10;;;;;;;;;;7378739;19;20714;-67
2023/01/03 06:39:39;;;;;;;0.10;0.10;;;;;;;;;;7379400;19;20634;-67
2023/01/03 06:53:11;;;;;;;0.10;0.10;;;6.80;99.90;;;;;;7380693;19;20599;-67
2023/01/03 06:53:15;;;;;;;0.10;0.10;;;6.60;99.90;;;;;;7381477;19;20637;-67
2023/01/03 06:55:46;;;;;;;0.10;0.10;;;6.60;99.90;;;;;;7380353;19;20673;-67
2023/01/03 06:58:15;;;;;;;0.10;0.10;;;6.60;99.90;;;;;;7380293;19;21008;-67
2023/01/03 07:00:45;;;;;;;0.10;0.10;;;6.50;99.90;;;;;;7378117;19;20743;-67
2023/01/03 07:03:14;;;;;;;0.10;0.10;;;6.50;99.90;;;;;;7381493;19;20669;-67
2023/01/03 07:05:45;;;;;;;0.10;0.10;;;6.50;99.90;;;;;;7380177;19;20674;-67
2023/01/03 07:08:13;;;;;;;0.10;0.10;;;6.50;99.90;;;;;;7378829;19;20695;-67
2023/01/03 07:10:42;;;;;;;0.00;0.00;;;6.50;99.90;;;;;;7381620;19;20648;-67
2023/01/03 07:15:52;;;;;;;0.03;0.03;;;6.50;99.90;;;;;;7379053;19;20618;-67
2023/01/03 07:18:21;;;;;;;0.10;0.10;;;6.50;99.90;;;;;;7380813;19;20729;-67
2023/01/03 07:20:52;;;;;;;0.10;0.10;;;6.50;99.90;;;;;;7380570;19;20648;-67
2023/01/03 07:23:20;;;;;;;0.10;0.10;;;6.50;99.90;;;;;;7380838;19;20729;-68
2023/01/03 07:25:49;;;;;;;0.10;0.10;;;6.50;99.90;;;;;;7380093;19;20615;-67
2023/01/03 07:28:18;;;;;;;0.10;0.10;;;6.50;99.90;;;;;;7379723;19;21330;-67
2023/01/03 07:30:47;;;;;;;0.10;0.10;;;6.50;99.90;;;;;;7381268;19;20599;-67
2023/01/03 07:33:17;;;;;;;0.10;0.10;;;6.50;99.90;;;;;;7380861;19;20640;-67
2023/01/03 07:35:46;;;;;;;0.10;0.10;;;6.50;99.90;;;;;;7380235;19;20619;-67
2023/01/03 07:38:18;;;;;;;0.10;0.10;;;6.50;99.90;;;;;;7378553;19;20736;-68
2023/01/03 07:40:46;;;;;;;0.00;0.00;;;;;;;;;;7379010;19;20651;-67
2023/01/03 07:45:56;;;;;;;0.00;0.00;;;6.60;99.90;;;;;;7379147;19;20591;-67
2023/01/03 07:48:25;;;;;;;0.10;0.10;;;6.60;99.90;;;;;;7376872;19;20639;-67
2023/01/03 07:50:59;;;;;;;0.10;0.10;;;6.60;99.90;;;;;;7378144;19;20654;-67
2023/01/03 07:53:30;;;;;;;0.00;0.00;;;6.70;99.90;;;;;;7377360;19;20625;-67
2023/01/03 07:56:07;;;;;;;0.10;0.10;;;6.70;99.90;;;;;;7378874;19;20679;-67
2023/01/03 07:58:36;;;;;;;0.10;0.10;;;;;;;;;;7379432;19;20688;-68
2023/01/03 08:01:09;;;;;;;0.10;0.10;;;5.50;99.90;;;;;;7376798;19;20689;-67
2023/01/03 08:03:39;;;;;;;0.10;0.10;;;6.80;99.90;;;;;;7380483;19;20606;-67
2023/01/03 08:06:09;;;;;;;0.00;0.00;;;6.90;99.90;;;;;;7376823;19;20743;-68
2023/01/03 08:08:41;;;;;;;0.10;0.10;;;6.90;99.90;;;;;;7378601;19;21107;-67
2023/01/03 08:13:54;;;;;;;0.10;0.10;;;6.90;99.90;;;;;;7376873;19;20725;-67
2023/01/03 08:16:23;;;;;;;0.10;0.10;;;7.00;99.90;;;;;;7376417;19;20764;-67
2023/01/03 08:18:52;;;;;;;0.10;0.10;;;7.00;99.90;;;;;;7378738;19;20641;-68
2023/01/03 08:21:21;;;;;;;0.10;0.10;;;7.00;99.90;;;;;;7377328;19;20630;-66
2023/01/03 08:23:52;;;;;;;0.10;0.10;;;7.00;99.90;;;;;;7377721;19;20688;-67
2023/01/03 08:26:21;;;;;;;0.10;0.10;;;7.00;99.90;;;;;;7375764;19;20666;-66
2023/01/03 08:28:49;;;;;;;0.00;0.00;;;7.00;99.90;;;;;;7375949;19;20753;-66
2023/01/03 08:31:20;;;;;;;0.10;0.10;;;7.00;99.90;;;;;;7377176;19;20631;-67
2023/01/03 08:33:54;;;;;;;0.00;0.00;;;7.00;99.90;;;;;;7378192;19;20607;-67
2023/01/03 08:36:24;;;;;;;0.10;0.10;;;7.00;99.90;;;;;;7375782;19;20707;-67
2023/01/03 08:38:59;;;;;;;0.10;0.10;;;7.00;99.90;;;;;;7376603;19;20757;-66
2023/01/03 08:41:31;;;;;;;0.10;0.10;;;7.00;99.90;;;;;;7379146;19;20717;-66
2023/01/03 08:44:02;;;;;;;0.07;0.07;;;6.90;99.90;;;;;;7378428;19;20713;-66
2023/01/03 08:46:32;;;;;;;0.10;0.10;;;7.00;99.90;;;;;;7377240;19;20774;-67
2023/01/03 08:49:01;;;;;;;0.00;0.00;;;7.00;99.90;;;;;;7377075;19;20649;-67
2023/01/03 08:51:30;;;;;;;0.10;0.10;;;7.00;99.90;;;;;;7378060;19;20595;-67
2023/01/03 08:54:01;;;;;;;0.07;0.07;;;7.10;99.90;;;;;;7377085;19;20611;-67
2023/01/03 08:56:30;;;;;;;0.10;0.10;;;7.10;99.90;;;;;;7376256;19;20693;-67
2023/01/03 08:59:01;;;;;;;0.10;0.10;;;7.10;99.90;;;;;;7374905;19;21369;-67
2023/01/03 09:01:30;;;;;;;0.10;0.10;;;7.20;99.90;;;;;;7378347;19;20579;-67
2023/01/03 09:03:58;;;;;;;0.10;0.10;;;7.20;99.90;;;;;;7376758;19;20722;-68
2023/01/03 09:06:27;;;;;;;0.10;0.10;;;7.20;99.90;;;;;;7376187;19;20801;-67
2023/01/03 09:08:56;;;;;;;0.00;0.00;;;7.20;99.90;;;;;;7376073;19;20675;-67
2023/01/03 09:11:27;;;;;;;0.00;0.00;;;7.30;99.90;;;;;;7376568;19;20665;-67
2023/01/03 09:13:57;;;;;;;0.10;0.10;;;7.40;99.90;;;;;;7376125;19;20608;-67
2023/01/03 09:16:26;;;;;;;0.10;0.10;;;7.40;99.90;;;;;;7374869;19;20801;-67
2023/01/03 09:18:55;;;;;;;0.00;0.00;;;7.50;99.90;;;;;;7377279;19;20710;-67
2023/01/03 09:21:24;;;;;;;0.10;0.10;;;7.50;99.90;;;;;;7376510;19;20748;-67
2023/01/03 09:23:53;;;;;;;0.00;0.00;;;7.60;99.90;;;;;;7374835;19;20630;-67
2023/01/03 09:26:22;;;;;;;0.10;0.10;;;7.60;99.90;;;;;;7376605;19;20659;-67
2023/01/03 09:28:54;;;;;;;0.10;0.10;;;7.70;99.90;;;;;;7377597;19;20682;-67
2023/01/03 09:31:23;;;;;;;0.10;0.10;;;7.70;99.90;;;;;;7377448;19;20603;-67
2023/01/03 09:33:52;;;;;;;0.10;0.10;;;7.80;99.90;;;;;;7377310;19;20611;-67
2023/01/03 09:36:22;;;;;;;0.10;0.10;;;7.90;99.90;;;;;;7376314;19;20627;-67
2023/01/03 09:38:54;;;;;;;0.10;0.10;;;8.00;99.90;;;;;;7377274;19;20752;-67
2023/01/03 09:41:25;;;;;;;0.10;0.10;;;8.00;99.90;;;;;;7374827;19;20623;-67
2023/01/03 09:44:00;;;;;;;0.10;0.10;;;8.10;99.90;;;;;;7375324;19;20675;-68
2023/01/03 09:46:36;;;;;;;0.00;0.00;;;8.20;99.90;;;;;;7375114;19;20805;-67
2023/01/03 09:49:11;;;;;;;0.10;0.10;;;8.30;99.90;;;;;;7376558;19;20729;-67
2023/01/03 10:06:14;;;;;;;0.10;0.10;;;8.90;99.90;;;;;;7375007;19;20669;-66
2023/01/03 10:08:57;;;;;;;0.10;0.10;;;9.00;99.90;;;;;;7377545;19;20603;-67
2023/01/03 10:11:40;;;;;;;0.10;0.10;;;9.00;99.90;;;;;;7377345;19;20732;-69
2023/01/03 10:14:22;;;;;;;0.10;0.10;;;9.10;99.90;;;;;;7376790;19;20606;-67
2023/01/03 10:17:06;;;;;;;0.10;0.10;;;9.10;99.90;;;;;;7374238;19;20654;-67
2023/01/03 10:20:12;;;;;;;0.10;0.10;;;9.20;99.90;;;;;;7375327;19;20750;-67
2023/01/03 10:22:42;;;;;;;0.10;0.10;;;9.30;99.90;;;;;;7373643;19;20630;-68
2023/01/03 10:25:20;;;;;;;0.00;0.00;;;9.30;99.90;;;;;;7375433;19;20630;-68
2023/01/03 10:28:01;;;;;;;0.00;0.00;;;9.40;99.90;;;;;;7372612;19;20655;-68
2023/01/03 10:30:42;;;;;;;0.10;0.10;;;9.40;99.90;;;;;;7375446;19;20635;-67
2023/01/03 10:33:32;;;;;;;0.00;0.00;;;9.40;99.90;;;;;;7375040;19;20653;-67
2023/01/03 10:36:01;;;;;;;0.10;0.10;;;9.40;99.90;;;;;;7376085;19;20641;-68
2023/01/03 10:38:31;;;;;;;0.10;0.10;;;9.50;99.90;;;;;;7373700;19;20615;-67
2023/01/03 10:41:02;;;;;;;0.00;0.00;;;9.50;99.90;;;;;;7374653;19;20619;-66
2023/01/03 10:43:37;;;;;;;0.10;0.10;;;9.70;99.90;;;;;;7373807;19;20747;-67
2023/01/03 10:46:08;;;;;;;0.10;0.10;;;9.80;99.90;;;;;;7375129;19;20646;-67
2023/01/03 10:48:45;;;;;;;0.10;0.10;;;9.90;99.90;;;;;;7374825;19;20657;-67
2023/01/03 10:51:30;;;;;;;0.00;0.00;;;10.00;99.90;;;;;;7373564;19;20989;-67
2023/01/03 10:54:01;;;;;;;0.10;0.10;;;10.10;99.90;;;;;;7373593;19;20639;-67
2023/01/03 10:56:34;;;;;;;0.03;0.03;;;10.30;99.90;;;;;;7375213;19;20591;-67
2023/01/03 10:59:14;;;;;;;0.07;0.07;;;10.40;99.90;;;;;;7374535;19;20672;-67
2023/01/03 11:01:59;;;;;;;0.10;0.10;;;10.60;99.90;;;;;;7373553;19;20658;-68
2023/01/03 11:04:34;;;;;;;0.00;0.00;;;10.70;99.90;;;;;;7372606;19;20618;-70
2023/01/03 11:07:06;;;;;;;0.00;0.00;;;10.80;99.90;;;;;;7371236;19;20183;-66
2023/01/03 11:09:43;;;;;;;0.10;0.10;;;10.90;99.90;;;;;;7375025;19;20632;-69
2023/01/03 11:12:20;;;;;;;0.10;0.10;;;10.80;99.90;;;;;;7372863;19;20615;-67
2023/01/03 11:14:54;;;;;;;0.10;0.10;;;10.90;99.90;;;;;;7378178;19;20169;-67
2023/01/03 11:17:25;;;;;;;0.00;0.00;;;10.90;99.90;;;;;;7377971;19;20654;-67
2023/01/03 11:20:01;;;;;;;0.00;0.00;;;10.80;99.90;;;;;;7382242;19;20137;-69
2023/01/03 11:22:40;;;;;;;0.10;0.10;;;10.60;99.90;;;;;;7379816;19;20156;-67
2023/01/03 11:25:39;;;;;;;0.00;0.00;;;10.50;99.90;;;;;;7382370;19;20148;-68
2023/01/03 11:28:43;;;;;;;0.00;0.00;;;10.40;99.90;;;;;;7380316;19;20208;-68
2023/01/03 11:31:24;;;;;;;0.10;0.10;;;10.30;99.90;;;;;;7382062;19;20659;-68
2023/01/03 11:34:09;;;;;;;0.10;0.10;;;10.20;99.90;;;;;;7382270;19;20166;-69
2023/01/03 11:36:50;;;;;;;0.00;0.00;;;10.10;99.90;;;;;;7379306;19;20176;-67
2023/01/03 11:39:53;;;;;;;0.10;0.10;;;10.10;99.90;;;;;;7380904;19;20733;-67
2023/01/03 11:42:39;;;;;;;0.10;0.10;;;10.00;99.90;;;;;;7380276;19;21357;-66
2023/01/03 11:45:30;;;;;;;0.10;0.10;;;10.00;99.90;;;;;;7380858;19;20630;-67
2023/01/03 11:48:17;;;;;;;0.00;0.00;;;9.90;99.90;;;;;;7376948;19;20666;-67
2023/01/03 11:50:59;;;;;;;0.10;0.10;;;9.80;99.90;;;;;;7380216;19;20663;-67
2023/01/03 11:53:38;;;;;;;0.00;0.00;;;9.80;99.90;;;;;;7381057;19;20988;-67
2023/01/03 11:56:18;;;;;;;0.10;0.10;;;9.70;99.90;;;;;;7378586;19;20788;-67
2023/01/03 11:59:08;;;;;;;0.10;0.10;;;9.70;99.90;;;;;;7379666;19;20158;-68
2023/01/03 12:02:04;;;;;;;0.00;0.00;;;9.80;99.90;;;;;;7380331;19;20696;-69
2023/01/03 12:04:53;;;;;;;0.00;0.00;;;9.80;99.90;;;;;;7378790;19;20607;-66
2023/01/03 12:07:54;;;;;;;0.10;0.10;;;9.80;99.90;;;;;;7379879;19;21025;-68
2023/01/03 12:10:34;;;;;;;0.03;0.03;;;9.90;99.90;;;;;;7379745;19;20750;-68
2023/01/03 12:13:29;;;;;;;0.10;0.10;;;10.00;99.90;;;;;;7379261;19;20772;-67
2023/01/03 12:16:10;;;;;;;0.00;0.00;;;10.00;99.90;;;;;;7378814;19;20626;-66
2023/01/03 12:18:50;;;;;;;0.00;0.00;;;10.00;99.90;;;;;;7377014;19;20626;-67
2023/01/03 12:21:25;;;;;;;0.03;0.03;;;10.00;99.90;;;;;;7377640;19;20196;-67
2023/01/03 12:24:00;;;;;;;0.10;0.10;;;9.90;99.90;;;;;;7379517;19;20667;-67
2023/01/03 12:26:32;;;;;;;0.10;0.10;;;9.90;99.90;;;;;;7375807;19;20611;-67
2023/01/03 12:29:07;;;;;;;0.10;0.10;;;9.80;99.90;;;;;;7379619;19;20718;-68
2023/01/03 12:31:40;;;;;;;0.10;0.10;;;9.70;99.90;;;;;;7375933;19;21052;-68
2023/01/03 12:34:20;;;;;;;0.00;0.00;;;9.70;99.90;;;;;;7377768;19;20140;-68
2023/01/03 12:36:54;;;;;;;0.00;0.00;;;9.60;99.90;;;;;;7374430;19;20744;-66
2023/01/03 12:39:46;;;;;;;0.00;0.00;;;9.50;99.90;;;;;;7376403;19;20163;-68
2023/01/03 12:42:24;;;;;;;0.00;0.00;;;9.40;99.90;;;;;;7376852;19;20611;-67
2023/01/03 12:45:01;;;;;;;0.10;0.10;;;9.40;99.90;;;;;;7377625;19;20663;-67
2023/01/03 12:47:36;;;;;;;0.10;0.10;;;9.40;99.90;;;;;;7374344;19;20685;-68
2023/01/03 12:50:10;;;;;;;0.10;0.10;;;9.40;99.90;;;;;;7377819;19;20676;-68
2023/01/03 12:52:39;;;;;;;0.07;0.07;;;9.40;99.90;;;;;;7375672;19;20176;-67
2023/01/03 12:55:20;;;;;;;0.00;0.00;;;9.40;99.90;;;;;;7375947;19;20657;-68
2023/01/03 12:58:08;;;;;;;0.10;0.10;;;9.50;99.90;;;;;;7373590;19;20655;-68
2023/01/03 13:00:57;;;;;;;0.10;0.10;;;9.50;99.90;;;;;;7379023;19;20691;-68
2023/01/03 13:03:28;;;;;;;0.10;0.10;;;9.50;99.90;;;;;;7376445;19;20740;-67
2023/01/03 13:06:00;;;;;;;0.10;0.10;;;9.50;99.90;;;;;;7377476;19;20721;-67
2023/01/03 13:08:35;;;;;;;0.00;0.00;;;9.60;99.90;;;;;;7376243;19;20741;-67
2023/01/03 13:11:07;;;;;;;0.07;0.07;;;9.60;99.90;;;;;;7374064;19;20712;-68
2023/01/03 13:13:38;;;;;;;0.00;0.00;;;9.60;99.90;;;;;;7377565;19;20623;-68
2023/01/03 13:16:37;;;;;;;0.10;0.10;;;9.60;99.90;;;;;;7376830;19;20687;-68
2023/01/03 13:19:36;;;;;;;0.10;0.10;;;9.60;99.90;;;;;;7375833;19;20618;-67
2023/01/03 13:22:07;;;;;;;0.10;0.10;;;9.60;99.90;;;;;;7377381;19;20847;-67
2023/01/03 13:24:43;;;;;;;0.00;0.00;;;9.60;99.90;;;;;;7375526;19;20724;-68
2023/01/03 13:27:40;;;;;;;0.10;0.10;;;9.60;99.90;;;;;;7365955;19;20653;-67
2023/01/03 13:30:25;;;;;;;0.10;0.10;;;9.50;99.90;;;;;;7363645;19;20643;-67
2023/01/03 13:33:05;;;;;;;0.10;0.10;;;9.50;99.90;;;;;;7373934;19;20635;-68
2023/01/03 13:35:36;;;;;;;0.10;0.10;;;9.50;99.90;;;;;;7374645;19;20767;-68
2023/01/03 13:38:20;;;;;;;0.03;0.03;;;9.50;99.90;;;;;;7370650;19;20715;-67
2023/01/03 13:40:51;;;;;;;0.10;0.10;;;9.50;99.90;;;;;;7376875;19;20630;-68
2023/01/03 13:43:27;;;;;;;0.00;0.00;;;9.50;99.90;;;;;;7379099;19;20161;-67
2023/01/03 13:46:04;;;;;;;0.10;0.10;;;9.40;99.90;;;;;;7375110;19;20645;-67
2023/01/03 13:48:39;;;;;;;0.00;0.00;;;9.40;99.90;;;;;;7375820;19;20649;-66
2023/01/03 13:51:33;;;;;;;0.10;0.10;;;9.40;99.90;;;;;;7373125;19;20739;-67
2023/01/03 13:54:05;;;;;;;0.10;0.10;;;9.30;99.90;;;;;;7375042;19;20591;-67
2023/01/03 13:57:02;;;;;;;0.10;0.10;;;9.30;99.90;;;;;;7374804;19;20753;-67
2023/01/03 13:59:36;;;;;;;0.00;0.00;;;9.20;99.90;;;;;;7375619;19;20603;-67
2023/01/03 14:02:48;;;;;;;0.00;0.00;;;9.10;99.90;;;;;;7372144;19;20665;-67
2023/01/03 14:05:39;;;;;;;0.00;0.00;;;9.00;99.90;;;;;;7373131;19;20725;-67
2023/01/03 14:08:27;;;;;;;0.10;0.10;;;8.90;99.90;;;;;;7374900;19;20671;-68
2023/01/03 14:11:07;;;;;;;0.00;0.00;;;8.90;99.90;;;;;;7371869;19;20738;-67
2023/01/03 14:13:40;;;;;;;0.10;0.10;;;8.80;99.90;;;;;;7375738;19;20717;-67
2023/01/03 14:16:32;;;;;;;0.10;0.10;;;8.80;99.90;;;;;;7374941;19;20639;-68
2023/01/03 14:19:07;;;;;;;0.07;0.07;;;8.70;99.90;;;;;;7374228;19;20679;-67
2023/01/03 14:21:45;;;;;;;0.03;0.03;;;8.60;99.90;;;;;;7376112;19;20610;-68
2023/01/03 14:24:25;;;;;;;0.00;0.00;;;8.60;99.90;;;;;;7374284;19;20653;-67
2023/01/03 14:26:54;;;;;;;0.00;0.00;;;8.50;99.90;;;;;;7374080;19;20619;-66
2023/01/03 14:29:25;;;;;;;0.10;0.10;;;8.50;99.90;;;;;;7374544;19;21402;-67
2023/01/03 14:31:58;;;;;;;0.10;0.10;;;8.50;99.90;;;;;;7370621;19;20773;-66
2023/01/03 14:34:35;;;;;;;0.10;0.10;;;8.40;99.90;;;;;;7372090;19;20618;-67
2023/01/03 14:37:06;;;;;;;0.10;0.10;;;8.40;99.90;;;;;;7371229;19;20654;-67
2023/01/03 14:39:35;;;;;;;0.10;0.10;;;8.30;99.90;;;;;;7375196;19;20611;-67
2023/01/03 14:42:06;;;;;;;0.10;0.10;;;8.30;99.90;;;;;;7374265;19;20611;-67
2023/01/03 14:44:36;;;;;;;0.00;0.00;;;8.30;99.90;;;;;;7373561;19;20576;-67
2023/01/03 14:47:07;;;;;;;0.00;0.00;;;8.20;99.90;;;;;;7372810;19;20619;-67